| Date | Time | Temp. (oF) | Dew Point (oF) | Rel. Hum. (%) | Press. (in.) | Wind Dir. | Wind Speed (mph) | Hourly Rainfall (in.) |
|
|---|---|---|---|---|---|---|---|---|---|
| 1 | 01/13 | 00:00 | 25 | 20 | 82 | 30.32 | NW | 0 | 0.00 |
| 2 | 01/12 | 23:00 | 27 | 21 | 81 | 30.31 | NW | 0 | 0.00 |
| 3 | 01/12 | 22:00 | 28 | 22 | 79 | 30.30 | NW | 0 | 0.00 |
| 4 | 01/12 | 21:00 | 30 | 23 | 77 | 30.29 | NW | 0 | 0.00 |
| 5 | 01/12 | 20:00 | 31 | 23 | 73 | 30.28 | NW | 0 | 0.00 |
| 6 | 01/12 | 19:00 | 33 | 24 | 70 | 30.26 | NW | 0 | 0.00 |
| 7 | 01/12 | 18:00 | 37 | 25 | 64 | 30.25 | NW | 0 | 0.00 |
| 8 | 01/12 | 17:00 | 40 | 25 | 57 | 30.22 | NNW | 2 | 0.00 |
| 9 | 01/12 | 16:00 | 40 | 23 | 52 | 30.20 | NW | 6 | 0.00 |
| 10 | 01/12 | 15:00 | 40 | 25 | 55 | 30.19 | NW | 3 | 0.00 |
| 11 | 01/12 | 14:00 | 39 | 25 | 57 | 30.19 | NW | 4 | 0.00 |
| 12 | 01/12 | 13:00 | 38 | 26 | 62 | 30.22 | NE | 4 | 0.00 |
| 13 | 01/12 | 12:00 | 36 | 26 | 67 | 30.24 | ENE | 3 | 0.00 |
| 14 | 01/12 | 11:00 | 34 | 26 | 73 | 30.26 | NE | 4 | 0.00 |
| 15 | 01/12 | 10:00 | 31 | 26 | 82 | 30.23 | ENE | 2 | 0.00 |
| 16 | 01/12 | 09:00 | 29 | 24 | 84 | 30.21 | N | 0 | 0.00 |
| 17 | 01/12 | 08:00 | 28 | 24 | 85 | 30.21 | NW | 1 | 0.00 |
| 18 | 01/12 | 07:00 | 28 | 23 | 84 | 30.20 | NNW | 0 | 0.00 |
| 19 | 01/12 | 06:00 | 29 | 24 | 83 | 30.18 | NNW | 1 | 0.00 |
| 20 | 01/12 | 05:00 | 29 | 24 | 83 | 30.17 | SSW | 2 | 0.00 |
| 21 | 01/12 | 04:00 | 29 | 24 | 83 | 30.15 | N | 0 | 0.00 |
| 22 | 01/12 | 03:00 | 30 | 24 | 81 | 30.16 | NNE | 1 | 0.00 |
| 23 | 01/12 | 02:00 | 31 | 25 | 81 | 30.15 | NW | 6 | 0.00 |
| 24 | 01/12 | 01:00 | 31 | 25 | 81 | 30.13 | N | 0 | 0.00 |